Wetterdaten: Woche 20.01.14 - 26.01.14 (KW4)
Datum Zeit Temp. A. Feuchte A. Luftdruck Regen Wind Richtung Taupunkt Windchill Windben
20.01.2014 00:00 7,0 C 84 % 1000,6 hPa 0,0 l/m 3,4 km/h N 4,5 C 7,0 C 12,1 km/h
20.01.2014 01:00 7,4 C 83 % 1000,4 hPa 0,0 l/m 1,8 km/h N 4,7 C 7,4 C 8,0 km/h
20.01.2014 02:00 7,4 C 83 % 1000,3 hPa 0,0 l/m 0,3 km/h N 4,7 C 7,4 C 2,8 km/h
20.01.2014 03:00 7,7 C 82 % 999,9 hPa 0,0 l/m 1,1 km/h N 4,8 C 7,7 C 5,2 km/h
20.01.2014 04:00 7,7 C 82 % 999,4 hPa 0,0 l/m 0,1 km/h N 4,8 C 7,7 C 1,2 km/h
20.01.2014 05:00 7,6 C 82 % 999,2 hPa 0,0 l/m 0,1 km/h N 4,7 C 7,6 C 0,8 km/h
20.01.2014 06:00 7,4 C 82 % 999,1 hPa 0,0 l/m 0,0 km/h N 4,4 C 7,4 C 0,8 km/h
20.01.2014 07:00 7,7 C 81 % 999,5 hPa 0,0 l/m 0,1 km/h N 4,6 C 7,7 C 3,6 km/h
20.01.2014 08:00 7,9 C 80 % 999,8 hPa 0,0 l/m 0,5 km/h N 4,7 C 7,9 C 5,6 km/h
20.01.2014 09:00 8,2 C 80 % 999,9 hPa 0,0 l/m 1,2 km/h N 5,0 C 8,2 C 7,2 km/h
20.01.2014 10:00 8,5 C 80 % 1000,1 hPa 0,0 l/m 1,4 km/h N 5,3 C 8,5 C 6,8 km/h
20.01.2014 11:00 8,8 C 81 % 999,8 hPa 0,0 l/m 1,5 km/h N 5,6 C 8,8 C 8,0 km/h
20.01.2014 12:00 9,1 C 82 % 999,3 hPa 0,0 l/m 0,9 km/h N 6,1 C 9,1 C 6,4 km/h
20.01.2014 13:00 9,1 C 83 % 999,2 hPa 0,0 l/m 1,7 km/h N 6,3 C 9,1 C 8,0 km/h
20.01.2014 14:00 9,0 C 83 % 999,5 hPa 0,0 l/m 0,8 km/h N 6,2 C 9,0 C 6,4 km/h
20.01.2014 15:00 8,9 C 83 % 1000,0 hPa 0,0 l/m 0,1 km/h N 6,1 C 8,9 C 2,0 km/h
20.01.2014 16:00 8,4 C 84 % 1000,5 hPa 0,0 l/m 2,3 km/h N 5,7 C 8,4 C 8,1 km/h
20.01.2014 17:00 7,4 C 85 % 1001,1 hPa 0,0 l/m 2,0 km/h N 5,0 C 7,4 C 9,7 km/h
20.01.2014 18:00 7,4 C 83 % 1001,4 hPa 0,0 l/m 5,6 km/h N 4,6 C 6,9 C 17,3 km/h
20.01.2014 19:00 7,7 C 76 % 1001,5 hPa 0,0 l/m 4,3 km/h N 3,6 C 7,7 C 18,1 km/h
20.01.2014 20:00 7,5 C 74 % 1001,8 hPa 0,0 l/m 5,7 km/h N 3,2 C 7,5 C 20,9 km/h
20.01.2014 21:00 7,2 C 75 % 1002,2 hPa 0,0 l/m 5,9 km/h N 3,0 C 7,1 C 19,3 km/h
20.01.2014 22:00 7,1 C 74 % 1002,4 hPa 0,0 l/m 5,2 km/h N 2,8 C 7,1 C 17,7 km/h
20.01.2014 23:00 6,9 C 73 % 1002,8 hPa 0,0 l/m 6,6 km/h N 2,4 C 6,5 C 20,1 km/h
21.01.2014 00:00 6,6 C 74 % 1003,0 hPa 0,0 l/m 8,1 km/h N 2,2 C 5,2 C 22,1 km/h
21.01.2014 01:00 6,4 C 76 % 1003,3 hPa 0,0 l/m 7,3 km/h N 2,3 C 5,6 C 24,9 km/h
21.01.2014 02:00 6,1 C 78 % 1003,5 hPa 0,0 l/m 7,5 km/h N 2,5 C 5,2 C 20,1 km/h
21.01.2014 03:00 5,8 C 79 % 1003,8 hPa 0,0 l/m 5,2 km/h N 2,4 C 5,8 C 17,3 km/h
21.01.2014 04:00 5,4 C 81 % 1004,1 hPa 0,0 l/m 5,5 km/h N 2,4 C 5,4 C 20,9 km/h
21.01.2014 05:00 5,4 C 80 % 1004,3 hPa 0,0 l/m 6,1 km/h N 2,3 C 5,3 C 25,3 km/h
21.01.2014 06:00 5,1 C 82 % 1004,7 hPa 0,3 l/m 6,6 km/h N 2,2 C 4,8 C 19,3 km/h
21.01.2014 07:00 4,9 C 83 % 1005,5 hPa 0,3 l/m 7,6 km/h N 2,2 C 3,8 C 23,3 km/h
21.01.2014 08:00 4,8 C 83 % 1006,1 hPa 0,5 l/m 10,1 km/h N 2,1 C 1,8 C 25,8 km/h
21.01.2014 09:00 4,8 C 83 % 1006,7 hPa 0,0 l/m 10,6 km/h N 2,2 C 1,4 C 26,1 km/h
21.01.2014 10:00 4,8 C 83 % 1007,0 hPa 0,0 l/m 14,8 km/h N 2,2 C -1,0 C 29,0 km/h
21.01.2014 11:00 5,1 C 83 % 1007,1 hPa 0,0 l/m 10,2 km/h N 2,4 C 2,0 C 25,3 km/h
21.01.2014 12:00 5,5 C 81 % 1007,2 hPa 0,0 l/m 10,4 km/h N 2,6 C 2,4 C 23,3 km/h
21.01.2014 13:00 5,6 C 80 % 1007,1 hPa 0,0 l/m 9,7 km/h N 2,4 C 2,9 C 25,7 km/h
21.01.2014 14:00 5,6 C 79 % 1007,3 hPa 0,0 l/m 11,0 km/h N 2,3 C 2,1 C 26,1 km/h
21.01.2014 15:00 5,3 C 80 % 1007,8 hPa 0,0 l/m 12,2 km/h N 2,0 C 1,0 C 29,0 km/h
21.01.2014 16:00 5,1 C 79 % 1008,2 hPa 0,0 l/m 14,1 km/h N 1,7 C -0,3 C 30,6 km/h
21.01.2014 17:00 4,9 C 81 % 1008,5 hPa 0,0 l/m 11,2 km/h N 1,8 C 1,2 C 27,0 km/h
21.01.2014 18:00 4,9 C 82 % 1008,8 hPa 0,0 l/m 9,8 km/h N 2,0 C 2,1 C 20,5 km/h
21.01.2014 19:00 4,7 C 83 % 1009,3 hPa 0,0 l/m 9,6 km/h N 2,0 C 2,0 C 20,9 km/h
21.01.2014 20:00 4,4 C 84 % 1009,7 hPa 0,3 l/m 8,7 km/h N 1,9 C 2,4 C 25,3 km/h
21.01.2014 21:00 4,0 C 85 % 1010,2 hPa 0,0 l/m 7,3 km/h N 1,6 C 3,1 C 21,7 km/h
21.01.2014 22:00 3,8 C 85 % 1010,4 hPa 0,3 l/m 6,3 km/h N 1,5 C 3,5 C 20,5 km/h
21.01.2014 23:00 3,3 C 86 % 1010,8 hPa 0,5 l/m 5,6 km/h N 1,2 C 3,3 C 18,1 km/h
22.01.2014 00:00 2,8 C 86 % 1010,9 hPa 0,5 l/m 4,5 km/h N 0,6 C 2,8 C 16,1 km/h
22.01.2014 01:00 2,6 C 85 % 1011,0 hPa 0,3 l/m 2,8 km/h N 0,3 C 2,6 C 9,7 km/h
22.01.2014 02:00 2,5 C 85 % 1011,1 hPa 0,3 l/m 2,0 km/h N 0,3 C 2,5 C 7,6 km/h
22.01.2014 03:00 2,3 C 85 % 1011,1 hPa 0,3 l/m 3,1 km/h N 0,1 C 2,3 C 10,1 km/h
22.01.2014 04:00 2,1 C 84 % 1011,4 hPa 0,3 l/m 2,3 km/h N -0,3 C 2,1 C 7,6 km/h
22.01.2014 05:00 2,0 C 84 % 1011,4 hPa 0,0 l/m 2,7 km/h N -0,4 C 2,0 C 10,5 km/h
22.01.2014 06:00 1,8 C 84 % 1011,6 hPa 0,3 l/m 2,6 km/h N -0,6 C 1,8 C 10,9 km/h
22.01.2014 07:00 1,8 C 84 % 1011,9 hPa 0,0 l/m 2,4 km/h N -0,6 C 1,8 C 9,3 km/h
22.01.2014 08:00 1,9 C 84 % 1012,3 hPa 0,0 l/m 1,3 km/h N -0,5 C 1,9 C 5,6 km/h
22.01.2014 09:00 2,3 C 84 % 1012,8 hPa 0,0 l/m 1,0 km/h N -0,2 C 2,3 C 5,2 km/h
22.01.2014 10:00 2,3 C 85 % 1013,1 hPa 0,0 l/m 3,1 km/h N 0,1 C 2,3 C 10,1 km/h
22.01.2014 11:00 2,7 C 85 % 1013,0 hPa 0,0 l/m 5,9 km/h N 0,5 C 2,5 C 16,5 km/h
22.01.2014 12:00 2,9 C 86 % 1012,9 hPa 0,0 l/m 6,4 km/h N 0,7 C 2,5 C 16,1 km/h
22.01.2014 13:00 2,8 C 86 % 1012,8 hPa 0,0 l/m 5,4 km/h N 0,7 C 2,8 C 13,3 km/h
22.01.2014 14:00 3,0 C 86 % 1012,8 hPa 0,0 l/m 2,8 km/h N 0,9 C 3,0 C 8,8 km/h
22.01.2014 15:00 3,2 C 85 % 1013,1 hPa 0,0 l/m 2,9 km/h N 0,9 C 3,2 C 8,8 km/h
22.01.2014 16:00 3,0 C 84 % 1013,5 hPa 0,0 l/m 2,3 km/h N 0,5 C 3,0 C 9,3 km/h
22.01.2014 17:00 2,8 C 83 % 1014,1 hPa 0,0 l/m 2,2 km/h N 0,2 C 2,8 C 8,9 km/h
22.01.2014 18:00 2,7 C 83 % 1014,6 hPa 0,0 l/m 2,2 km/h N 0,1 C 2,7 C 8,0 km/h
22.01.2014 19:00 2,5 C 83 % 1015,0 hPa 0,0 l/m 1,4 km/h N -0,1 C 2,5 C 7,2 km/h
22.01.2014 20:00 2,2 C 82 % 1015,5 hPa 0,0 l/m 0,4 km/h N -0,5 C 2,2 C 4,4 km/h
22.01.2014 21:00 1,5 C 84 % 1015,9 hPa 0,0 l/m 0,0 km/h N -0,9 C 1,5 C 1,6 km/h
22.01.2014 22:00 0,9 C 85 % 1016,3 hPa 0,0 l/m 0,0 km/h N -1,3 C 0,9 C 0,0 km/h
22.01.2014 23:00 0,5 C 85 % 1016,5 hPa 0,0 l/m 0,3 km/h N -1,7 C 0,5 C 4,4 km/h
23.01.2014 00:00 0,1 C 85 % 1016,6 hPa 0,0 l/m 0,1 km/h N -2,1 C 0,1 C 2,0 km/h
23.01.2014 01:00 -0,2 C 85 % 1016,5 hPa 0,0 l/m 0,0 km/h N -2,4 C -0,2 C 1,2 km/h
23.01.2014 02:00 -0,3 C 85 % 1016,8 hPa 0,0 l/m 0,0 km/h N -2,5 C -0,3 C 0,4 km/h
23.01.2014 03:00 -0,4 C 85 % 1017,1 hPa 0,0 l/m 0,3 km/h N -2,6 C -0,4 C 4,0 km/h
23.01.2014 04:00 -0,5 C 85 % 1017,3 hPa 0,0 l/m 0,0 km/h N -2,7 C -0,5 C 1,2 km/h
23.01.2014 05:00 -0,7 C 88 % 1017,5 hPa 0,0 l/m 0,0 km/h N -2,5 C -0,7 C 0,4 km/h
23.01.2014 06:00 -0,8 C 86 % 1017,8 hPa 0,0 l/m 0,2 km/h N -2,9 C -0,8 C 2,8 km/h
23.01.2014 07:00 -0,9 C 86 % 1018,2 hPa 0,0 l/m 0,0 km/h N -3,0 C -0,9 C 2,0 km/h
23.01.2014 08:00 -1,4 C 85 % 1018,7 hPa 0,0 l/m 0,3 km/h N -3,5 C -1,4 C 4,0 km/h
23.01.2014 09:00 -1,6 C 84 % 1019,0 hPa 0,0 l/m 0,7 km/h N -3,9 C -1,6 C 6,8 km/h
23.01.2014 10:00 -1,3 C 83 % 1019,4 hPa 0,0 l/m 0,4 km/h N -3,9 C -1,3 C 4,0 km/h
23.01.2014 11:00 -0,9 C 82 % 1019,3 hPa 0,0 l/m 0,1 km/h N -3,6 C -0,9 C 1,6 km/h
23.01.2014 12:00 -0,7 C 81 % 1019,0 hPa 0,3 l/m 0,1 km/h N -3,6 C -0,7 C 2,4 km/h
23.01.2014 13:00 -0,3 C 80 % 1018,7 hPa 0,0 l/m 0,3 km/h N -3,3 C -0,3 C 4,0 km/h
23.01.2014 14:00 -0,0 C 80 % 1018,3 hPa 0,0 l/m 0,3 km/h N -3,1 C -0,0 C 4,0 km/h
23.01.2014 15:00 0,1 C 79 % 1018,5 hPa 0,0 l/m 0,3 km/h N -3,2 C 0,1 C 4,0 km/h
23.01.2014 16:00 -0,3 C 78 % 1018,8 hPa 0,0 l/m 0,1 km/h N -3,6 C -0,3 C 2,4 km/h
23.01.2014 17:00 -0,6 C 79 % 1019,0 hPa 0,0 l/m 0,0 km/h N -3,8 C -0,6 C 1,2 km/h
23.01.2014 18:00 -0,8 C 80 % 1019,1 hPa 0,0 l/m 0,0 km/h N -3,8 C -0,8 C 1,2 km/h
23.01.2014 19:00 -0,9 C 80 % 1019,1 hPa 0,0 l/m 0,0 km/h N -3,9 C -0,9 C 2,0 km/h
23.01.2014 20:00 -0,9 C 80 % 1019,2 hPa 0,0 l/m 0,1 km/h N -3,9 C -0,9 C 2,0 km/h
23.01.2014 21:00 -1,0 C 81 % 1018,8 hPa 0,0 l/m 0,1 km/h N -3,8 C -1,0 C 2,4 km/h
23.01.2014 22:00 -1,1 C 81 % 1018,4 hPa 0,0 l/m 0,1 km/h N -4,0 C -1,1 C 0,8 km/h
23.01.2014 23:00 -1,2 C 82 % 1017,8 hPa 0,0 l/m 0,4 km/h N -4,0 C -1,2 C 4,4 km/h
24.01.2014 00:00 -1,2 C 82 % 1017,3 hPa 0,0 l/m 0,4 km/h N -3,9 C -1,2 C 3,6 km/h
24.01.2014 01:00 -1,3 C 83 % 1016,9 hPa 0,0 l/m 0,1 km/h N -3,9 C -1,3 C 1,6 km/h
24.01.2014 02:00 -1,6 C 82 % 1016,8 hPa 0,0 l/m 0,1 km/h N -4,2 C -1,6 C 2,4 km/h
24.01.2014 03:00 -1,7 C 83 % 1016,3 hPa 0,0 l/m 0,2 km/h N -4,3 C -1,7 C 2,4 km/h
24.01.2014 04:00 -1,8 C 84 % 1015,8 hPa 0,0 l/m 0,0 km/h N -4,1 C -1,8 C 1,2 km/h
24.01.2014 05:00 -1,8 C 85 % 1015,4 hPa 0,0 l/m 0,2 km/h N -3,9 C -1,8 C 1,6 km/h
24.01.2014 06:00 -1,6 C 86 % 1015,1 hPa 0,0 l/m 0,0 km/h N -3,6 C -1,6 C 0,8 km/h
24.01.2014 07:00 -1,3 C 86 % 1015,0 hPa 0,0 l/m 0,2 km/h N -3,3 C -1,3 C 2,0 km/h
24.01.2014 08:00 -0,9 C 88 % 1015,1 hPa 0,0 l/m 0,0 km/h N -2,8 C -0,9 C 0,4 km/h
24.01.2014 09:00 -0,6 C 86 % 1015,4 hPa 0,0 l/m 0,0 km/h N -2,7 C -0,6 C 0,8 km/h
24.01.2014 10:00 -0,3 C 85 % 1015,5 hPa 0,0 l/m 0,1 km/h N -2,5 C -0,3 C 2,4 km/h
24.01.2014 11:00 0,1 C 85 % 1015,2 hPa 0,0 l/m 0,1 km/h N -2,2 C 0,1 C 1,2 km/h
24.01.2014 12:00 0,3 C 85 % 1014,8 hPa 0,0 l/m 0,1 km/h N -1,9 C 0,3 C 2,0 km/h
24.01.2014 13:00 0,3 C 85 % 1014,6 hPa 0,0 l/m 0,1 km/h N -2,0 C 0,3 C 2,4 km/h
24.01.2014 14:00 -0,1 C 85 % 1014,5 hPa 0,0 l/m 0,2 km/h N -2,4 C -0,1 C 4,4 km/h
24.01.2014 15:00 -0,2 C 84 % 1014,7 hPa 0,0 l/m 0,2 km/h N -2,6 C -0,2 C 2,8 km/h
24.01.2014 16:00 -0,2 C 84 % 1015,0 hPa 0,0 l/m 0,0 km/h N -2,6 C -0,2 C 0,4 km/h
24.01.2014 17:00 -0,1 C 84 % 1015,2 hPa 0,0 l/m 0,7 km/h N -2,4 C -0,1 C 3,6 km/h
24.01.2014 18:00 -0,0 C 84 % 1015,4 hPa 0,0 l/m 2,3 km/h N -2,4 C -0,0 C 8,4 km/h
24.01.2014 19:00 0,0 C 84 % 1015,5 hPa 0,0 l/m 4,5 km/h N -2,3 C 0,0 C 14,1 km/h
24.01.2014 20:00 -0,1 C 84 % 1015,6 hPa 0,0 l/m 5,7 km/h N -2,4 C -0,1 C 15,3 km/h
24.01.2014 21:00 -0,2 C 85 % 1015,9 hPa 0,0 l/m 6,2 km/h N -2,4 C -0,5 C 15,7 km/h
24.01.2014 22:00 -0,5 C 85 % 1016,2 hPa 0,0 l/m 7,3 km/h N -2,7 C -1,4 C 17,7 km/h
24.01.2014 23:00 -0,6 C 86 % 1016,4 hPa 0,0 l/m 6,4 km/h N -2,6 C -0,7 C 18,5 km/h
25.01.2014 00:00 -0,6 C 86 % 1016,2 hPa 0,0 l/m 5,6 km/h N -2,6 C -0,7 C 16,5 km/h
25.01.2014 01:00 -0,5 C 86 % 1016,0 hPa 0,0 l/m 7,9 km/h N -2,6 C -2,1 C 19,7 km/h
25.01.2014 02:00 -0,9 C 85 % 1016,1 hPa 0,0 l/m 8,0 km/h N -3,0 C -2,5 C 20,5 km/h
25.01.2014 03:00 -1,3 C 83 % 1016,1 hPa 0,0 l/m 6,1 km/h N -3,8 C -1,3 C 17,7 km/h
25.01.2014 04:00 -1,7 C 82 % 1016,4 hPa 0,0 l/m 7,5 km/h N -4,4 C -2,9 C 20,9 km/h
25.01.2014 05:00 -2,2 C 81 % 1016,6 hPa 0,0 l/m 8,4 km/h N -5,0 C -4,3 C 22,5 km/h
25.01.2014 06:00 -3,0 C 80 % 1016,9 hPa 0,0 l/m 9,1 km/h N -6,0 C -5,9 C 22,5 km/h
25.01.2014 07:00 -3,6 C 76 % 1017,5 hPa 0,0 l/m 11,5 km/h N -7,2 C -8,7 C 27,4 km/h
25.01.2014 08:00 -3,5 C 70 % 1018,0 hPa 0,0 l/m 10,8 km/h N -8,2 C -8,0 C 26,1 km/h
25.01.2014 09:00 -2,7 C 66 % 1018,2 hPa 0,0 l/m 10,4 km/h N -8,2 C -6,8 C 24,1 km/h
25.01.2014 10:00 -2,1 C 66 % 1018,2 hPa 0,0 l/m 9,9 km/h N -7,7 C -5,7 C 25,4 km/h
25.01.2014 11:00 -1,2 C 60 % 1017,8 hPa 0,0 l/m 11,7 km/h N -7,9 C -6,1 C 27,0 km/h
25.01.2014 12:00 -1,0 C 59 % 1017,0 hPa 0,0 l/m 10,5 km/h N -8,1 C -4,9 C 26,1 km/h
25.01.2014 13:00 -0,9 C 63 % 1016,3 hPa 0,0 l/m 11,0 km/h N -7,1 C -5,2 C 26,1 km/h
25.01.2014 14:00 -0,8 C 55 % 1015,9 hPa 0,0 l/m 9,5 km/h N -8,6 C -3,8 C 24,1 km/h
25.01.2014 15:00 -1,1 C 64 % 1015,8 hPa 0,0 l/m 9,6 km/h N -7,1 C -4,2 C 27,0 km/h
25.01.2014 16:00 -1,5 C 69 % 1015,8 hPa 0,0 l/m 10,5 km/h N -6,5 C -5,4 C 29,4 km/h
25.01.2014 17:00 -2,1 C 70 % 1016,3 hPa 0,0 l/m 9,9 km/h N -6,9 C -5,6 C 24,5 km/h
25.01.2014 18:00 -2,5 C 73 % 1016,9 hPa 0,0 l/m 11,5 km/h N -6,7 C -7,5 C 28,2 km/h
25.01.2014 19:00 -3,9 C 72 % 1017,4 hPa 0,0 l/m 6,7 km/h N -8,2 C -5,7 C 20,1 km/h
25.01.2014 20:00 -6,5 C 73 % 1017,7 hPa 0,0 l/m 3,0 km/h N -10,5 C -6,5 C 15,7 km/h
25.01.2014 21:00 -7,0 C 75 % 1017,9 hPa 0,0 l/m 2,7 km/h N -10,6 C -7,0 C 13,7 km/h
25.01.2014 22:00 -7,8 C 75 % 1017,7 hPa 0,0 l/m 3,3 km/h N -11,5 C -7,8 C 13,7 km/h
25.01.2014 23:00 -8,6 C 76 % 1017,0 hPa 0,0 l/m 3,6 km/h N -12,1 C -8,6 C 11,7 km/h
26.01.2014 00:00 -9,0 C 77 % 1016,4 hPa 0,0 l/m 0,6 km/h N -12,2 C -9,0 C 5,2 km/h
26.01.2014 01:00 -9,3 C 79 % 1015,1 hPa 0,0 l/m 0,6 km/h N -12,3 C -9,3 C 4,8 km/h
26.01.2014 02:00 -9,1 C 79 % 1014,3 hPa 0,0 l/m 0,0 km/h N -12,0 C -9,1 C 1,2 km/h
26.01.2014 03:00 -8,9 C 78 % 1013,7 hPa 0,0 l/m 0,2 km/h N -12,0 C -8,9 C 3,2 km/h
26.01.2014 04:00 -9,0 C 77 % 1013,4 hPa 0,0 l/m 0,1 km/h N -12,3 C -9,0 C 2,4 km/h
26.01.2014 05:00 -8,9 C 77 % 1013,3 hPa 0,0 l/m 0,1 km/h N -12,2 C -8,9 C 2,4 km/h
26.01.2014 06:00 -9,2 C 77 % 1013,8 hPa 0,0 l/m 0,2 km/h N -12,5 C -9,2 C 2,8 km/h
26.01.2014 07:00 -9,2 C 77 % 1014,1 hPa 0,0 l/m 0,0 km/h N -12,5 C -9,2 C 1,2 km/h
26.01.2014 08:00 -9,2 C 77 % 1014,5 hPa 0,0 l/m 0,2 km/h N -12,4 C -9,2 C 3,2 km/h
26.01.2014 09:00 -9,0 C 79 % 1014,6 hPa 0,0 l/m 0,2 km/h N -12,0 C -9,0 C 3,6 km/h
26.01.2014 10:00 -8,1 C 78 % 1014,6 hPa 0,0 l/m 0,3 km/h N -11,3 C -8,1 C 3,2 km/h
26.01.2014 11:00 -6,8 C 75 % 1014,3 hPa 0,0 l/m 0,5 km/h N -10,5 C -6,8 C 4,4 km/h
26.01.2014 12:00 -5,9 C 70 % 1014,0 hPa 0,0 l/m 0,3 km/h N -10,4 C -5,9 C 3,6 km/h
26.01.2014 13:00 -6,1 C 69 % 1013,7 hPa 0,0 l/m 0,1 km/h N -10,9 C -6,1 C 2,4 km/h
26.01.2014 14:00 -5,9 C 69 % 1013,6 hPa 0,0 l/m 0,0 km/h N -10,6 C -5,9 C 1,2 km/h
26.01.2014 15:00 -5,8 C 72 % 1013,7 hPa 0,0 l/m 0,0 km/h N -10,1 C -5,8 C 2,0 km/h
26.01.2014 16:00 -6,0 C 75 % 1013,9 hPa 0,0 l/m 0,3 km/h N -9,7 C -6,0 C 4,0 km/h
26.01.2014 17:00 -6,2 C 79 % 1014,0 hPa 0,0 l/m 0,1 km/h N -9,3 C -6,2 C 2,4 km/h
26.01.2014 18:00 -6,3 C 81 % 1013,7 hPa 0,0 l/m 0,0 km/h N -9,0 C -6,3 C 1,6 km/h
26.01.2014 19:00 -6,1 C 82 % 1013,4 hPa 0,0 l/m 0,7 km/h N -8,7 C -6,1 C 4,8 km/h
26.01.2014 20:00 -6,1 C 84 % 1013,1 hPa 0,0 l/m 3,0 km/h N -8,4 C -6,1 C 10,1 km/h
26.01.2014 21:00 -6,0 C 85 % 1012,6 hPa 0,0 l/m 2,9 km/h N -8,1 C -6,0 C 10,1 km/h
26.01.2014 22:00 -5,9 C 86 % 1011,7 hPa 0,0 l/m 2,1 km/h N -7,8 C -5,9 C 8,4 km/h
26.01.2014 23:00 -5,7 C 86 % 1010,6 hPa 0,0 l/m 2,3 km/h N -7,6 C -5,7 C 8,4 km/h
Min-Datum _ 26.01.14 25.01.14 20.01.14 - 20.01.14 - 26.01.14 25.01.14 20.01.14
_ Min-Zeit 01:15 14:30 05:45 - 02:30 - 06:30 07:45 02:30
Minimum _ -9,4 C 53 % 999,0 hPa - 0,0 km/h - -12,6 C -9,8 C 0,0 km/h
Max-Datum _ 20.01.14 23.01.14 23.01.14 21.01.14 21.01.14 - 20.01.14 20.01.14 25.01.14
_ Max-Zeit 12:45 05:30 10:30 08:00 10:00 - 13:15 12:15 16:45
Maximum _ 9,2 C 92 % 1019,6 hPa 0,5 l/m 15,6 km/h
N
- 6,4 C 9,1 C 37,0 km/h
N
Durchschnitt _ 0,5 C 80 % 1012,1 hPa #4,2 l/m 3,4 km/h N -2,5 C -0,1 C 10,8 km/h